Česky Dansk Deutsch English Español Suomi Français Magyar Italiano Nederlands norsk Polski Português svenska Türkçe

 

Het Weer

Sliac (Slowakije)

13:30, 23 augustus 2016 (GMT)

NWNNE
WE
SWSSE
Home            
Sliac Sliac Prievidza Lucenec Dolny Hricov Nitra Poprad / Tatry Piestany Piestany Budapest Met Center Kunovice Budaors Budapest / Ferihegy Miskolc Holesov Ostrava / Mosnov Tokol Bratislava Ivanka Kosice Kosice, Barca Krakow Katowice Brno / Turany

Om een weerknop op uw website of weblog te plaatsen, copieer onderstaande code en plak die in uw pagina. In het eerste vakje staat HTML-code, in het tweede vakje UBB-code.


Add to Google

Details

Wind speed:2 bf, 5 kn, 2.6 m/s, 5.8 miles/h, 9.3 km/h
Wind direction:NW, 310° - NE, 040°
Visibility:Greater than 10000 m, 10 km, 32800 ft, 6.2 miles
Clouds:Ein wenig bewölkt at 5000 ft, 1524 m
Temperature:26°C, 79°F
Gefühlte Temperatur:26°C, 79°F
Dew-point:11°C, 52°F
Atmospheric pressure:1024 hPa, 768.1 mmHg, 30.24 inHg, 1.011 atm
Relative humidity:39.1 %
METAR:LZSL 231330Z 01005KT 310V040 9999 FEW050 26/11 Q1024

Snelkoppelingen

Actuele weersinformatie van de hele wereld. Voeg locaties toe met het plus (+) symbool. Deze snelkoppelingen kunnen worden toegevoegd aan Google.

Lid van de Technetium groep

website free tracking
StatCounter NetStat W3C Validator

28-09-2020 09:57:49
astro.technetium.be money.technetium.be phote.technetium.be tafeltennistafel.technetium.be www.ligfiets.net